Time;durP1;ratioP1;P1;durP2;ratioP2;P2;SDS_P1;SDS_P2;PMS_P1;PMS_P2;Temp;Humidity;BMP_temperature;BMP_pressure;BME280_temperature;BME280_humidity;BME280_pressure;Samples;Min_cycle;Max_cycle;Signal;HPM_P1;HPM_P2
2022/04/25 00:01:31;;;;;;;14.33;1.70;;;12.00;99.90;;;;;;4259029;27;20031;-60
2022/04/25 00:03:32;;;;;;;12.17;2.30;;;12.00;99.90;;;;;;4257408;27;20103;-59
2022/04/25 00:05:33;;;;;;;11.23;1.20;;;12.00;99.90;;;;;;4259061;27;20376;-53
2022/04/25 00:07:35;;;;;;;14.10;1.60;;;11.90;99.90;;;;;;4258061;27;20083;-53
2022/04/25 00:09:36;;;;;;;7.20;1.43;;;11.90;99.90;;;;;;4259000;27;20039;-53
2022/04/25 00:11:37;;;;;;;8.87;1.80;;;11.80;99.90;;;;;;4257731;27;20478;-55
2022/04/25 00:13:38;;;;;;;10.47;1.17;;;11.70;99.90;;;;;;4259018;27;20034;-53
2022/04/25 00:15:40;;;;;;;10.03;1.60;;;11.60;99.90;;;;;;4257821;27;20083;-58
2022/04/25 00:17:42;;;;;;;7.47;1.33;;;11.60;99.90;;;;;;4258063;27;20154;-57
2022/04/25 00:19:43;;;;;;;7.27;1.23;;;11.60;99.90;;;;;;4258939;27;20062;-51
2022/04/25 00:21:44;;;;;;;13.17;2.13;;;11.60;99.90;;;;;;4259074;27;20091;-54
2022/04/25 00:23:46;;;;;;;12.27;1.43;;;11.60;99.90;;;;;;4258304;27;20558;-57
2022/04/25 00:25:47;;;;;;;10.67;1.70;;;11.50;99.90;;;;;;4257665;27;20042;-55
2022/04/25 00:27:48;;;;;;;14.13;2.13;;;11.50;99.90;;;;;;4258498;27;20038;-60
2022/04/25 00:29:49;;;;;;;10.23;1.83;;;11.40;99.90;;;;;;4257045;27;20042;-54
2022/04/25 00:31:50;;;;;;;11.70;1.37;;;11.40;99.90;;;;;;4258043;27;20830;-55
2022/04/25 00:33:51;;;;;;;11.50;1.37;;;11.40;99.90;;;;;;4257667;27;20432;-63
2022/04/25 00:35:52;;;;;;;14.50;2.07;;;11.30;99.90;;;;;;4258286;27;20031;-53
2022/04/25 00:37:54;;;;;;;7.47;1.80;;;11.30;99.90;;;;;;4256650;27;20460;-55
2022/04/25 00:39:55;;;;;;;8.77;1.60;;;11.30;99.90;;;;;;4258069;27;20095;-54
2022/04/25 00:41:57;;;;;;;18.23;2.53;;;11.30;99.90;;;;;;4256980;27;20046;-60
2022/04/25 00:43:58;;;;;;;13.10;2.37;;;11.40;99.90;;;;;;4258476;27;20087;-55
2022/04/25 00:46:00;;;;;;;13.10;1.87;;;11.40;99.90;;;;;;4257077;27;20038;-56
2022/04/25 00:48:01;;;;;;;12.57;1.70;;;11.30;99.90;;;;;;4257413;27;20942;-64
2022/04/25 00:50:03;;;;;;;10.80;1.13;;;11.30;99.90;;;;;;4257423;27;20058;-59
2022/04/25 00:52:05;;;;;;;5.97;1.63;;;11.30;99.90;;;;;;4258011;27;20034;-57
2022/04/25 00:54:06;;;;;;;10.13;1.30;;;11.30;99.90;;;;;;4258409;27;20030;-57
2022/04/25 00:56:09;;;;;;;12.47;1.67;;;11.30;99.90;;;;;;4256766;27;20030;-57
2022/04/25 00:58:13;;;;;;;10.43;1.77;;;11.30;99.90;;;;;;4257723;27;20087;-59
2022/04/25 01:00:15;;;;;;;8.70;1.70;;;11.30;99.90;;;;;;4257065;27;20091;-61
2022/04/25 01:02:16;;;;;;;15.83;2.60;;;11.20;99.90;;;;;;4257324;27;20098;-53
2022/04/25 01:04:18;;;;;;;11.23;2.60;;;11.20;99.90;;;;;;4257256;27;20115;-53
2022/04/25 01:06:19;;;;;;;12.27;2.53;;;11.10;99.90;;;;;;4258127;27;20523;-60
2022/04/25 01:08:21;;;;;;;7.53;1.67;;;11.10;99.90;;;;;;4257506;27;20081;-60
2022/04/25 01:10:22;;;;;;;10.23;2.17;;;11.10;99.90;;;;;;4257904;27;20436;-58
2022/04/25 01:12:23;;;;;;;10.57;1.90;;;11.00;99.90;;;;;;4256878;27;20039;-57
2022/04/25 01:14:25;;;;;;;11.07;1.50;;;11.00;99.90;;;;;;4258171;27;20057;-52
2022/04/25 01:16:26;;;;;;;11.73;1.60;;;10.90;99.90;;;;;;4256270;27;20475;-62
2022/04/25 01:18:27;;;;;;;10.03;1.60;;;10.90;99.90;;;;;;4257074;27;20083;-49
2022/04/25 01:20:28;;;;;;;12.47;2.23;;;10.90;99.90;;;;;;4256495;27;20050;-58
2022/04/25 01:22:40;;;;;;;15.03;2.03;;;10.90;99.90;;;;;;4257718;27;20030;-52
2022/04/25 01:27:17;;;;;;;12.50;2.00;;;10.80;99.90;;;;;;4257725;27;20439;-57
2022/04/25 01:29:18;;;;;;;16.57;2.00;;;10.80;99.90;;;;;;4257077;27;20087;-67
2022/04/25 01:31:19;;;;;;;8.47;1.60;;;10.80;99.90;;;;;;4256896;27;20087;-61
2022/04/25 01:33:20;;;;;;;10.87;1.53;;;10.70;99.90;;;;;;4257753;27;20047;-51
2022/04/25 01:35:22;;;;;;;7.73;1.20;;;10.80;99.90;;;;;;4256749;27;20075;-65
2022/04/25 01:37:24;;;;;;;11.80;3.10;;;10.70;99.90;;;;;;4257471;27;20042;-55
2022/04/25 01:39:25;;;;;;;14.70;2.93;;;10.70;99.90;;;;;;4256394;27;20039;-64
2022/04/25 01:41:26;;;;;;;7.90;1.97;;;10.70;99.90;;;;;;4257860;27;20019;-59
2022/04/25 01:43:28;;;;;;;14.60;2.57;;;10.70;99.90;;;;;;4257323;27;20022;-59
2022/04/25 01:45:29;;;;;;;8.20;1.87;;;10.70;99.90;;;;;;4257792;27;20491;-56
2022/04/25 01:47:30;;;;;;;9.20;1.30;;;10.70;99.90;;;;;;4256492;27;20432;-57
2022/04/25 01:49:35;;;;;;;11.40;2.40;;;10.70;99.90;;;;;;4257462;27;20480;-56
2022/04/25 01:51:39;;;;;;;13.57;2.27;;;10.70;99.90;;;;;;4256671;27;20581;-62
2022/04/25 01:53:40;;;;;;;12.80;1.57;;;10.60;99.90;;;;;;4258825;27;20076;-58
2022/04/25 01:55:42;;;;;;;9.97;1.70;;;10.60;99.90;;;;;;4256857;27;20095;-59
2022/04/25 01:57:43;;;;;;;11.47;1.40;;;10.60;99.90;;;;;;4258120;27;20020;-54
2022/04/25 01:59:45;;;;;;;13.93;2.23;;;10.60;99.90;;;;;;4256620;27;20486;-61
2022/04/25 02:01:46;;;;;;;13.67;1.53;;;10.60;99.90;;;;;;4257576;27;20027;-50
2022/04/25 02:03:47;;;;;;;8.47;0.93;;;10.60;99.90;;;;;;4256809;27;20018;-63
2022/04/25 02:05:48;;;;;;;7.50;1.60;;;10.60;99.90;;;;;;4256918;27;20038;-59
2022/04/25 02:07:49;;;;;;;10.77;1.80;;;10.60;99.90;;;;;;4256648;27;20039;-51
2022/04/25 02:09:50;;;;;;;10.47;1.43;;;10.50;99.90;;;;;;4256624;27;20042;-61
2022/04/25 02:11:52;;;;;;;13.63;1.70;;;10.50;99.90;;;;;;4257480;27;20867;-61
2022/04/25 02:13:53;;;;;;;13.07;2.50;;;10.50;99.90;;;;;;4256381;27;20425;-58
2022/04/25 02:15:56;;;;;;;8.63;1.87;;;10.50;99.90;;;;;;4257927;27;20075;-60
2022/04/25 02:17:57;;;;;;;9.97;1.73;;;10.50;99.90;;;;;;4255742;27;20060;-59
2022/04/25 02:19:59;;;;;;;11.53;2.13;;;10.50;99.90;;;;;;4257732;27;20444;-55
2022/04/25 02:22:01;;;;;;;13.80;1.93;;;10.50;99.90;;;;;;4256517;27;20083;-55
2022/04/25 02:24:03;;;;;;;19.33;2.27;;;10.40;99.90;;;;;;4257805;27;20079;-62
2022/04/25 02:26:05;;;;;;;8.53;1.40;;;10.40;99.90;;;;;;4256170;27;20046;-57
2022/04/25 02:28:06;;;;;;;13.70;1.93;;;10.40;99.90;;;;;;4257121;27;20456;-58
2022/04/25 02:30:08;;;;;;;13.47;2.50;;;10.40;99.90;;;;;;4256540;27;20075;-56
2022/04/25 02:32:12;;;;;;;13.43;1.97;;;10.50;99.90;;;;;;4255653;27;20079;-57
2022/04/25 02:34:14;;;;;;;15.00;1.63;;;10.50;99.90;;;;;;4256616;27;20152;-55
2022/04/25 02:36:15;;;;;;;13.53;2.13;;;10.40;99.90;;;;;;4258862;27;20022;-61
2022/04/25 02:38:17;;;;;;;14.53;2.10;;;10.40;99.90;;;;;;4259935;27;20130;-60
2022/04/25 02:40:19;;;;;;;13.50;2.17;;;10.40;99.90;;;;;;4259336;27;20983;-61
2022/04/25 02:42:20;;;;;;;14.93;3.07;;;10.40;99.90;;;;;;4259896;27;20030;-55
2022/04/25 02:44:22;;;;;;;6.53;1.27;;;10.30;99.90;;;;;;4259758;27;20068;-56
2022/04/25 02:46:23;;;;;;;8.77;2.60;;;10.30;99.90;;;;;;4260321;27;20372;-60
2022/04/25 02:48:24;;;;;;;11.77;1.87;;;10.20;99.90;;;;;;4258598;27;20035;-61
2022/04/25 02:50:25;;;;;;;12.10;1.90;;;10.20;99.90;;;;;;4259833;27;20047;-59
2022/04/25 02:52:26;;;;;;;10.93;2.57;;;10.20;99.90;;;;;;4258365;27;20043;-59
2022/04/25 02:54:28;;;;;;;10.80;2.43;;;10.10;99.90;;;;;;4260247;27;20523;-56
2022/04/25 02:56:29;;;;;;;11.70;2.23;;;10.10;99.90;;;;;;4259210;27;20924;-56
2022/04/25 02:58:32;;;;;;;15.60;2.23;;;10.10;99.90;;;;;;4259836;27;20034;-55
2022/04/25 03:00:33;;;;;;;5.93;1.70;;;10.10;99.90;;;;;;4259791;27;20116;-63
2022/04/25 03:02:34;;;;;;;15.90;2.20;;;10.10;99.90;;;;;;4260167;27;20566;-57
2022/04/25 03:04:36;;;;;;;8.13;1.83;;;10.20;99.90;;;;;;4258096;27;20083;-55
2022/04/25 03:06:37;;;;;;;7.63;2.40;;;10.10;99.90;;;;;;4259895;27;20022;-54
2022/04/25 03:08:39;;;;;;;9.90;2.53;;;10.10;99.90;;;;;;4259185;27;20022;-53
2022/04/25 03:10:42;;;;;;;15.77;2.57;;;10.10;99.90;;;;;;4259304;27;20047;-58
2022/04/25 03:12:43;;;;;;;16.43;2.50;;;10.00;99.90;;;;;;4258680;27;20502;-63
2022/04/25 03:14:45;;;;;;;9.33;2.20;;;10.00;99.90;;;;;;4258882;27;20030;-57
2022/04/25 03:16:47;;;;;;;13.27;2.40;;;10.00;99.90;;;;;;4259419;27;20071;-53
2022/04/25 03:18:48;;;;;;;8.73;2.13;;;10.00;99.90;;;;;;4258259;27;20091;-54
2022/04/25 03:20:50;;;;;;;10.67;2.50;;;10.10;99.90;;;;;;4259854;27;20083;-60
2022/04/25 03:22:52;;;;;;;12.63;2.30;;;10.10;99.90;;;;;;4258403;27;20091;-49
2022/04/25 03:24:55;;;;;;;13.90;1.93;;;10.20;99.90;;;;;;4260369;27;20036;-55
2022/04/25 03:26:57;;;;;;;10.10;2.67;;;10.20;99.90;;;;;;4258218;27;20387;-57
2022/04/25 03:28:58;;;;;;;5.87;1.93;;;10.20;99.90;;;;;;4259594;27;20111;-53
2022/04/25 03:30:59;;;;;;;12.77;1.97;;;10.10;99.90;;;;;;4258519;27;20091;-55
2022/04/25 03:33:01;;;;;;;12.73;2.00;;;10.10;99.90;;;;;;4259356;27;20083;-63
2022/04/25 03:35:03;;;;;;;11.40;1.87;;;10.10;99.90;;;;;;4257626;27;20452;-59
2022/04/25 03:37:04;;;;;;;14.73;2.00;;;10.10;99.90;;;;;;4259649;27;20022;-58
2022/04/25 03:39:06;;;;;;;10.70;2.00;;;10.10;99.90;;;;;;4258590;27;20103;-55
2022/04/25 03:41:07;;;;;;;10.93;2.33;;;10.00;99.90;;;;;;4259336;27;20026;-62
2022/04/25 03:43:09;;;;;;;17.23;2.40;;;10.00;99.90;;;;;;4258952;27;20047;-57
2022/04/25 03:45:12;;;;;;;11.87;3.40;;;10.00;99.90;;;;;;4259058;27;20026;-53
2022/04/25 03:47:13;;;;;;;12.80;2.33;;;10.00;99.90;;;;;;4239613;27;20077;-57
2022/04/25 03:49:14;;;;;;;10.40;2.10;;;10.10;99.90;;;;;;4257942;27;20103;-65
2022/04/25 03:51:15;;;;;;;12.37;2.37;;;10.10;99.90;;;;;;4259420;27;20551;-56
2022/04/25 03:53:16;;;;;;;9.43;2.10;;;10.10;99.90;;;;;;4258110;27;20030;-56
2022/04/25 03:57:48;;;;;;;;;;;10.20;99.90;;;;;;4188307;28;20033;-57
2022/04/25 03:59:49;;;;;;;16.90;2.40;;;10.40;99.90;;;;;;4254776;27;19960;-55
2022/04/25 04:01:50;;;;;;;14.50;3.33;;;10.50;99.90;;;;;;4257319;27;20836;-57
2022/04/25 04:03:53;;;;;;;15.50;2.20;;;10.60;99.90;;;;;;4258277;27;20030;-48
2022/04/25 04:05:55;;;;;;;18.90;2.67;;;10.60;99.90;;;;;;4257500;27;20503;-62
2022/04/25 04:07:56;;;;;;;12.87;2.30;;;10.70;99.90;;;;;;4259351;27;20022;-61
2022/04/25 04:09:58;;;;;;;12.93;2.33;;;10.80;99.90;;;;;;4257375;27;20038;-55
2022/04/25 04:11:59;;;;;;;13.97;2.00;;;11.00;99.90;;;;;;4259181;27;20043;-53
2022/04/25 04:14:00;;;;;;;12.87;2.63;;;11.30;99.90;;;;;;4257635;27;20814;-59
2022/04/25 04:16:03;;;;;;;14.93;2.40;;;11.70;99.90;;;;;;4259564;27;20091;-61
2022/04/25 04:18:07;;;;;;;19.03;3.50;;;12.00;99.90;;;;;;4257022;27;20447;-56
2022/04/25 04:20:11;;;;;;;20.70;2.80;;;12.30;99.90;;;;;;4258087;27;20552;-60
2022/04/25 04:22:12;;;;;;;14.20;2.70;;;12.50;99.90;;;;;;4258078;27;20443;-55
2022/04/25 04:24:14;;;;;;;9.13;2.30;;;12.40;99.90;;;;;;4258148;27;20440;-63
2022/04/25 04:26:15;;;;;;;14.17;2.87;;;12.60;99.90;;;;;;4257781;27;20099;-65
2022/04/25 04:28:16;;;;;;;16.13;2.50;;;12.80;99.90;;;;;;4257960;27;20083;-57
2022/04/25 04:30:18;;;;;;;11.93;2.17;;;12.80;99.90;;;;;;4257908;27;20072;-58
2022/04/25 04:32:19;;;;;;;14.87;2.27;;;12.90;99.90;;;;;;4256895;27;20046;-60
2022/04/25 04:34:20;;;;;;;11.83;2.70;;;12.70;99.90;;;;;;4258597;27;20447;-56
2022/04/25 04:36:22;;;;;;;11.20;2.70;;;12.60;99.90;;;;;;4257756;27;20026;-58
2022/04/25 04:38:23;;;;;;;13.10;2.30;;;13.00;99.90;;;;;;4258416;27;20039;-56
2022/04/25 04:40:30;;;;;;;11.90;2.13;;;13.30;99.90;;;;;;4257205;27;20035;-51
2022/04/25 04:42:31;;;;;;;10.27;2.33;;;13.70;99.90;;;;;;4258689;27;20079;-54
2022/04/25 04:44:32;;;;;;;12.77;2.37;;;14.20;99.90;;;;;;4256436;27;20035;-65
2022/04/25 04:46:33;;;;;;;7.60;2.30;;;14.70;99.90;;;;;;4258239;27;20093;-58
2022/04/25 04:48:35;;;;;;;7.03;1.93;;;15.00;99.90;;;;;;4256943;27;20079;-58
2022/04/25 04:50:36;;;;;;;14.60;2.10;;;15.20;99.90;;;;;;4257727;27;20074;-55
2022/04/25 04:52:37;;;;;;;12.17;2.40;;;15.40;99.90;;;;;;4257508;27;20030;-57
2022/04/25 04:54:38;;;;;;;10.80;1.70;;;15.50;99.90;;;;;;4258475;27;20023;-53
2022/04/25 04:56:39;;;;;;;9.05;2.50;;;15.60;99.90;;;;;;4257902;27;20084;-62
2022/04/25 04:58:40;;;;;;;10.80;2.27;;;15.70;99.90;;;;;;4256779;27;20046;-54
2022/04/25 05:00:44;;;;;;;12.45;2.30;;;15.80;99.90;;;;;;4257779;27;20039;-63
2022/04/25 05:02:46;;;;;;;8.90;2.33;;;15.60;99.90;;;;;;4257400;27;20084;-55
2022/04/25 05:04:49;;;;;;;17.08;2.58;;;15.80;99.90;;;;;;4257708;27;20532;-64
2022/04/25 05:06:50;;;;;;;11.25;2.67;;;15.90;99.90;;;;;;4256326;27;20445;-57
2022/04/25 05:08:52;;;;;;;12.07;1.85;;;15.80;99.90;;;;;;4258504;27;20058;-52
2022/04/25 05:10:54;;;;;;;7.05;1.88;;;15.90;99.90;;;;;;4257099;27;20039;-55
2022/04/25 05:12:55;;;;;;;9.43;1.60;;;16.20;99.90;;;;;;4257599;27;20047;-58
2022/04/25 05:14:57;;;;;;;9.73;1.40;;;16.40;99.90;;;;;;4256897;27;20102;-54
2022/04/25 05:16:59;;;;;;;7.97;1.20;;;16.50;99.90;;;;;;4257679;27;20031;-55
2022/04/25 05:19:00;;;;;;;10.40;1.40;;;16.70;99.90;;;;;;4257146;27;20034;-59
2022/04/25 05:21:04;;;;;;;9.38;1.13;;;16.70;99.90;;;;;;4258677;27;20035;-52
2022/04/25 05:23:06;;;;;;;8.63;1.42;;;17.00;99.90;;;;;;4257166;27;20068;-52
2022/04/25 05:25:07;;;;;;;10.48;1.38;;;17.00;99.90;;;;;;4257991;27;20068;-55
2022/04/25 05:27:08;;;;;;;9.57;1.10;;;17.40;99.90;;;;;;4255766;27;20079;-59
2022/04/25 05:29:10;;;;;;;14.50;1.08;;;17.70;99.90;;;;;;4257230;27;20039;-57
2022/04/25 05:31:11;;;;;;;7.55;1.13;;;17.60;99.90;;;;;;4257740;27;20121;-56
2022/04/25 05:33:13;;;;;;;11.23;3.05;;;17.40;99.90;;;;;;4256576;27;20059;-57
2022/04/25 05:35:15;;;;;;;8.85;1.45;;;17.10;99.90;;;;;;4258163;27;20038;-52
2022/04/25 05:37:16;;;;;;;8.95;1.15;;;17.20;99.90;;;;;;4256176;27;20034;-57
2022/04/25 05:39:17;;;;;;;10.63;1.05;;;17.50;99.90;;;;;;4257318;27;20075;-64
2022/04/25 05:41:19;;;;;;;7.82;1.80;;;17.60;99.90;;;;;;4256144;27;20104;-51
2022/04/25 05:43:20;;;;;;;7.35;1.45;;;17.80;99.90;;;;;;4257698;27;20436;-63
2022/04/25 05:45:23;;;;;;;4.95;1.23;;;18.30;99.90;;;;;;4256667;27;20027;-61
2022/04/25 05:47:24;;;;;;;6.13;1.55;;;18.50;99.90;;;;;;4257416;27;20078;-60
2022/04/25 05:51:59;;;;;;;11.50;1.63;;;18.60;99.90;;;;;;4204867;28;20044;-61
2022/04/25 05:54:00;;;;;;;7.93;1.50;;;18.30;99.90;;;;;;4254870;27;20031;-57
2022/04/25 05:56:01;;;;;;;8.75;1.17;;;17.70;99.90;;;;;;4258078;27;20107;-54
2022/04/25 05:58:04;;;;;;;12.73;1.67;;;17.50;99.90;;;;;;4256844;27;20807;-57
2022/04/25 06:00:08;;;;;;;12.82;1.85;;;17.60;99.90;;;;;;4257750;27;20076;-55
2022/04/25 06:02:10;;;;;;;8.07;1.75;;;17.50;99.90;;;;;;4255872;27;20076;-59
2022/04/25 06:04:11;;;;;;;9.82;1.50;;;17.40;99.90;;;;;;4257614;27;20368;-63
2022/04/25 06:06:12;;;;;;;15.82;2.00;;;17.40;99.90;;;;;;4255514;27;20491;-60
2022/04/25 06:08:14;;;;;;;13.95;1.90;;;17.30;99.90;;;;;;4257348;27;20035;-65
2022/04/25 06:10:17;;;;;;;14.93;2.15;;;17.20;99.90;;;;;;4256934;27;20469;-65
2022/04/25 06:12:18;;;;;;;7.45;1.73;;;17.30;99.90;;;;;;4260519;27;20027;-57
2022/04/25 06:14:19;;;;;;;8.07;1.75;;;17.30;99.90;;;;;;4259798;27;20122;-62
2022/04/25 06:16:20;;;;;;;7.35;1.55;;;17.20;99.90;;;;;;4259200;27;20081;-56
2022/04/25 06:18:22;;;;;;;10.55;1.70;;;17.20;99.90;;;;;;4260612;27;20038;-56
2022/04/25 06:20:24;;;;;;;9.48;1.52;;;17.00;99.90;;;;;;4259619;27;20847;-57
2022/04/25 06:22:25;;;;;;;12.93;2.25;;;16.90;99.90;;;;;;4260408;27;20043;-54
2022/04/25 06:24:27;;;;;;;17.23;1.65;;;16.90;99.90;;;;;;4259736;27;20547;-57
2022/04/25 06:26:30;;;;;;;4.43;1.17;;;16.90;99.90;;;;;;4261139;27;20075;-52
2022/04/25 06:28:31;;;;;;;11.57;1.58;;;16.90;99.90;;;;;;4258510;27;20035;-60
2022/04/25 06:30:33;;;;;;;12.55;2.25;;;16.90;99.90;;;;;;4260981;27;20046;-57
2022/04/25 06:32:34;;;;;;;8.85;1.17;;;16.90;99.90;;;;;;4259336;27;20088;-61
2022/04/25 06:34:36;;;;;;;8.95;1.20;;;16.90;99.90;;;;;;4260448;27;20072;-59
2022/04/25 06:36:37;;;;;;;7.32;1.30;;;16.90;99.90;;;;;;4259483;27;20091;-57
2022/04/25 06:38:38;;;;;;;11.00;1.63;;;17.00;99.90;;;;;;4259719;27;20035;-60
2022/04/25 06:40:39;;;;;;;10.60;1.38;;;16.80;99.90;;;;;;4259621;27;20150;-60
2022/04/25 06:42:40;;;;;;;6.78;0.80;;;16.70;99.90;;;;;;4259232;27;20111;-55
2022/04/25 06:44:41;;;;;;;11.05;2.28;;;16.60;99.90;;;;;;4259522;27;20458;-63
2022/04/25 06:46:43;;;;;;;7.57;1.35;;;16.40;99.90;;;;;;4258828;27;20088;-56
2022/04/25 06:49:19;;;;;;;8.13;1.42;;;16.40;99.90;;;;;;4259822;27;20966;-60
2022/04/25 06:51:08;;;;;;;10.00;2.17;;;16.60;99.90;;;;;;4259575;27;20047;-52
2022/04/25 06:53:09;;;;;;;7.53;1.90;;;16.40;99.90;;;;;;4259574;27;20030;-54
2022/04/25 06:55:11;;;;;;;11.25;2.13;;;16.20;99.90;;;;;;4259345;27;20855;-54
2022/04/25 06:57:12;;;;;;;4.85;1.10;;;16.20;99.90;;;;;;4260508;27;20027;-60
2022/04/25 06:59:13;;;;;;;12.98;2.42;;;16.30;99.90;;;;;;4259217;27;20031;-53
2022/04/25 07:01:15;;;;;;;5.30;1.55;;;16.40;99.90;;;;;;4259946;27;20047;-56
2022/04/25 07:03:17;;;;;;;7.22;1.90;;;16.50;99.90;;;;;;4258197;27;20042;-62
2022/04/25 07:05:18;;;;;;;9.63;1.23;;;16.70;99.90;;;;;;4259882;27;20042;-56
2022/04/25 07:07:20;;;;;;;8.43;1.20;;;16.90;99.90;;;;;;4258456;27;20039;-53
2022/04/25 07:09:21;;;;;;;6.10;1.13;;;17.30;99.90;;;;;;4259889;27;20039;-48
2022/04/25 07:11:22;;;;;;;5.82;1.63;;;17.60;99.90;;;;;;4258825;27;20046;-55
2022/04/25 07:13:24;;;;;;;7.25;1.35;;;17.90;99.90;;;;;;4260000;27;20046;-56
2022/04/25 07:15:25;;;;;;;9.57;1.60;;;17.90;99.90;;;;;;4258427;27;20538;-55
2022/04/25 07:17:26;;;;;;;11.32;1.20;;;17.60;99.90;;;;;;4259444;27;20035;-57
2022/04/25 07:19:27;;;;;;;10.30;1.60;;;17.50;99.90;;;;;;4258567;27;20097;-54
2022/04/25 07:30:48;;;;;;;13.00;1.55;;;17.50;99.90;;;;;;4259910;27;20369;-53
2022/04/25 07:32:49;;;;;;;6.90;1.73;;;17.50;99.90;;;;;;4257879;27;20531;-57
2022/04/25 07:34:50;;;;;;;8.07;1.45;;;17.50;99.90;;;;;;4259538;27;20091;-51
2022/04/25 07:36:53;;;;;;;4.90;1.58;;;17.60;99.90;;;;;;4258601;27;20039;-54
2022/04/25 07:38:54;;;;;;;9.63;1.85;;;17.60;99.90;;;;;;4258353;27;20449;-60
2022/04/25 07:40:55;;;;;;;8.32;1.25;;;17.70;99.90;;;;;;4258973;27;20039;-49
2022/04/25 07:42:57;;;;;;;12.00;1.98;;;17.70;99.90;;;;;;4258022;27;20091;-61
2022/04/25 07:44:58;;;;;;;4.68;0.90;;;17.70;99.90;;;;;;4259291;27;20064;-52
2022/04/25 07:46:59;;;;;;;8.60;1.45;;;17.90;99.90;;;;;;4257848;27;20015;-56
2022/04/25 07:49:01;;;;;;;8.45;1.73;;;18.40;99.90;;;;;;4259469;27;20087;-58
2022/04/25 07:51:03;;;;;;;9.40;1.00;;;18.70;99.90;;;;;;4257477;27;20440;-55
2022/04/25 07:53:04;;;;;;;10.98;1.55;;;19.10;99.90;;;;;;4258527;27;20038;-57
2022/04/25 07:55:07;;;;;;;10.73;1.98;;;19.50;99.90;;;;;;4257873;27;20034;-62
2022/04/25 07:57:08;;;;;;;7.90;1.88;;;19.40;99.90;;;;;;4259865;27;20431;-52
2022/04/25 07:59:09;;;;;;;9.93;1.35;;;19.20;99.90;;;;;;4257572;27;20420;-51
2022/04/25 08:01:11;;;;;;;11.68;2.42;;;19.10;99.90;;;;;;4258915;27;20115;-57
2022/04/25 08:03:12;;;;;;;9.27;1.00;;;19.20;99.90;;;;;;4256873;27;20088;-53
2022/04/25 08:05:13;;;;;;;4.55;1.10;;;19.20;99.90;;;;;;4258423;27;20752;-60
2022/04/25 08:07:14;;;;;;;7.05;1.27;;;19.10;99.90;;;;;;4258009;27;20079;-57
2022/04/25 08:09:16;;;;;;;16.25;1.65;;;19.40;99.90;;;;;;4257940;27;20042;-58
2022/04/25 08:11:18;;;;;;;8.98;1.48;;;19.90;99.90;;;;;;4257898;27;20046;-62
2022/04/25 08:18:01;;;;;;;3.55;1.05;;;20.50;99.90;;;;;;4259023;27;20026;-65
2022/04/25 08:20:03;;;;;;;8.18;1.25;;;20.40;99.90;;;;;;4257691;27;20052;-64
2022/04/25 08:22:09;;;;;;;7.55;1.30;;;19.90;99.90;;;;;;4257574;27;20083;-57
2022/04/25 08:24:12;;;;;;;8.13;1.58;;;19.60;99.90;;;;;;4258011;27;20047;-56
2022/04/25 08:26:13;;;;;;;5.70;1.40;;;19.20;99.90;;;;;;4258295;27;20023;-53
2022/04/25 08:28:14;;;;;;;9.25;2.33;;;19.00;99.90;;;;;;4258428;27;20367;-56
2022/04/25 08:30:17;;;;;;;7.43;1.27;;;19.00;99.90;;;;;;4257405;27;20099;-57
2022/04/25 08:32:18;;;;;;;7.57;1.40;;;18.90;99.90;;;;;;4258898;27;20448;-55
2022/04/25 08:34:19;;;;;;;6.38;1.42;;;18.80;99.90;;;;;;4256462;27;20080;-54
2022/04/25 08:36:20;;;;;;;8.45;1.90;;;18.70;99.90;;;;;;4257944;27;20035;-57
2022/04/25 08:38:22;;;;;;;8.57;1.65;;;18.80;99.90;;;;;;4257654;27;20087;-60
2022/04/25 08:40:23;;;;;;;11.10;2.10;;;18.80;99.90;;;;;;4258493;27;20091;-51
2022/04/25 08:42:24;;;;;;;7.72;1.65;;;19.20;99.90;;;;;;4257265;27;20027;-61
2022/04/25 08:44:25;;;;;;;10.88;2.03;;;19.30;99.90;;;;;;4258460;27;20499;-64
2022/04/25 08:46:30;;;;;;;8.70;1.38;;;19.40;99.90;;;;;;4256784;27;20074;-55
2022/04/25 08:48:31;;;;;;;9.35;1.90;;;19.50;99.90;;;;;;4239695;27;20031;-67
2022/04/25 08:50:33;;;;;;;7.47;1.58;;;19.50;99.90;;;;;;4256258;27;20038;-55
2022/04/25 08:52:35;;;;;;;6.60;1.40;;;19.40;99.90;;;;;;4257687;27;20081;-58
2022/04/25 08:54:37;;;;;;;12.18;1.83;;;19.50;99.90;;;;;;4257844;27;20056;-55
2022/04/25 08:56:40;;;;;;;5.18;1.10;;;19.70;99.90;;;;;;4257557;27;20038;-53
2022/04/25 08:58:42;;;;;;;10.13;2.22;;;20.00;99.90;;;;;;4257898;27;20042;-54
2022/04/25 09:00:44;;;;;;;8.68;1.90;;;20.00;99.90;;;;;;4256815;27;20095;-53
2022/04/25 09:02:47;;;;;;;9.10;1.60;;;19.80;99.90;;;;;;4257573;27;20034;-56
2022/04/25 09:04:51;;;;;;;10.55;1.70;;;19.70;99.90;;;;;;4257111;27;20027;-58
2022/04/25 09:06:55;;;;;;;5.88;1.50;;;19.50;99.90;;;;;;4258158;27;20022;-57
2022/04/25 09:08:56;;;;;;;15.25;1.73;;;19.80;99.90;;;;;;4256242;27;20043;-56
2022/04/25 09:13:19;;;;;;;9.68;2.22;;;20.20;99.90;;;;;;4257223;27;20035;-53
2022/04/25 09:15:22;;;;;;;10.73;1.80;;;20.60;99.90;;;;;;4257554;27;20454;-65
2022/04/25 09:17:24;;;;;;;6.30;1.10;;;20.50;99.90;;;;;;4255963;27;20026;-58
2022/04/25 09:19:26;;;;;;;9.05;1.35;;;20.30;99.90;;;;;;4258001;27;20023;-57
2022/04/25 09:21:27;;;;;;;12.93;2.03;;;20.00;99.90;;;;;;4256623;27;20107;-57
2022/04/25 09:23:28;;;;;;;9.93;1.42;;;20.00;99.90;;;;;;4257163;27;20050;-54
2022/04/25 09:25:29;;;;;;;13.30;1.80;;;20.00;99.90;;;;;;4256370;27;20071;-63
2022/04/25 09:27:31;;;;;;;9.15;2.22;;;20.00;99.90;;;;;;4258341;27;20035;-53
2022/04/25 09:29:34;;;;;;;8.90;2.03;;;19.80;99.90;;;;;;4256339;27;20039;-57
2022/04/25 09:31:35;;;;;;;4.55;1.33;;;19.50;99.90;;;;;;4238983;27;20116;-64
2022/04/25 09:33:36;;;;;;;9.25;1.85;;;19.30;99.90;;;;;;4256803;27;20873;-60
2022/04/25 09:35:42;;;;;;;6.10;1.20;;;19.10;99.90;;;;;;4256998;27;20042;-57
2022/04/25 09:37:46;;;;;;;13.10;1.73;;;18.80;99.90;;;;;;4256893;27;20555;-58
2022/04/25 09:39:47;;;;;;;6.47;1.63;;;18.50;99.90;;;;;;4256369;27;20035;-64
2022/04/25 09:41:48;;;;;;;8.98;1.88;;;18.30;99.90;;;;;;4257556;27;20042;-54
2022/04/25 09:43:58;;;;;;;9.55;1.58;;;18.20;99.90;;;;;;4256085;27;20046;-56
2022/04/25 09:46:06;;;;;;;4.93;0.98;;;18.10;99.90;;;;;;4259388;27;20046;-56
2022/04/25 09:48:10;;;;;;;11.27;2.17;;;18.00;99.90;;;;;;4259445;27;20083;-59
2022/04/25 09:50:13;;;;;;;9.75;1.58;;;17.80;99.90;;;;;;4261576;27;20708;-61
2022/04/25 09:52:14;;;;;;;10.43;2.00;;;17.70;99.90;;;;;;4259828;27;20563;-65
2022/04/25 09:54:23;;;;;;;11.98;1.52;;;17.70;99.90;;;;;;4261549;27;20034;-60
2022/04/25 09:56:30;;;;;;;11.20;2.78;;;17.70;99.90;;;;;;4259818;27;20027;-61
2022/04/25 09:58:31;;;;;;;13.40;2.55;;;17.30;99.90;;;;;;4261662;27;20042;-62
2022/04/25 10:00:36;;;;;;;14.10;2.92;;;16.70;99.90;;;;;;4240570;27;20088;-59
2022/04/25 10:02:39;;;;;;;12.35;3.70;;;16.30;99.90;;;;;;4260459;27;20173;-60
2022/04/25 10:04:40;;;;;;;5.70;2.15;;;16.00;99.90;;;;;;4260237;27;20035;-61
2022/04/25 10:06:42;;;;;;;11.65;2.97;;;15.70;99.90;;;;;;4260979;27;20031;-61
2022/04/25 10:08:45;;;;;;;8.85;2.17;;;15.30;99.90;;;;;;4259748;27;20046;-51
2022/04/25 10:10:53;;;;;;;14.27;2.30;;;15.20;99.90;;;;;;4241875;27;20043;-63
2022/04/25 10:12:55;;;;;;;9.73;2.80;;;15.00;99.90;;;;;;4259602;27;20038;-53
2022/04/25 10:14:59;;;;;;;8.95;2.30;;;14.70;99.90;;;;;;4260065;27;20047;-54
2022/04/25 10:17:00;;;;;;;9.93;1.98;;;14.50;99.90;;;;;;4260036;27;20127;-53
2022/04/25 10:19:02;;;;;;;7.65;1.63;;;14.30;99.90;;;;;;4260387;27;20083;-61
2022/04/25 10:21:07;;;;;;;5.63;2.28;;;14.00;99.90;;;;;;4260024;27;20563;-66
2022/04/25 10:23:10;;;;;;;9.18;1.27;;;13.80;99.90;;;;;;4259361;27;20031;-57
2022/04/25 10:25:11;;;;;;;9.37;1.60;;;13.60;99.90;;;;;;4260611;27;20023;-57
2022/04/25 10:27:14;;;;;;;7.43;1.53;;;13.40;99.90;;;;;;4259771;27;20051;-54
2022/04/25 10:29:32;;;;;;;7.53;2.10;;;13.20;99.90;;;;;;4260851;27;20019;-61
2022/04/25 10:31:41;;;;;;;6.50;1.40;;;13.20;99.90;;;;;;4258873;27;20043;-57
2022/04/25 10:34:00;;;;;;;3.40;1.57;;;13.10;99.90;;;;;;4260771;27;20019;-55
2022/04/25 10:36:02;;;;;;;6.15;1.30;;;13.00;99.90;;;;;;4259521;27;20027;-66
2022/04/25 10:38:47;;;;;;;9.10;1.37;;;13.00;99.90;;;;;;4259834;27;20043;-59
2022/04/25 10:46:01;;;;;;;4.00;1.27;;;13.00;99.90;;;;;;4260680;27;20629;-57
2022/04/25 10:48:08;;;;;;;4.87;1.13;;;13.10;99.90;;;;;;4259248;27;20111;-53
2022/04/25 10:50:09;;;;;;;4.47;1.20;;;13.20;99.90;;;;;;4259778;27;20103;-61
2022/04/25 10:52:33;;;;;;;7.77;0.77;;;13.30;99.90;;;;;;4257470;27;20039;-54
2022/04/25 10:54:48;;;;;;;4.87;1.23;;;13.50;99.90;;;;;;4259356;27;20060;-61
2022/04/25 10:57:07;;;;;;;3.23;1.33;;;13.70;99.90;;;;;;4257317;27;20087;-57
2022/04/25 10:59:22;;;;;;;3.77;1.50;;;13.90;99.90;;;;;;4259499;27;20490;-59
2022/04/25 11:01:30;;;;;;;4.13;1.67;;;14.00;99.90;;;;;;4257556;27;20057;-54